Time;durP1;ratioP1;P1;durP2;ratioP2;P2;SDS_P1;SDS_P2;PMS_P1;PMS_P2;Temp;Humidity;BMP_temperature;BMP_pressure;BME280_temperature;BME280_humidity;BME280_pressure;Samples;Min_cycle;Max_cycle;Signal;HPM_P1;HPM_P2
2022/08/03 00:01:52;;;;;;;1.55;0.98;;;26.30;43.80;;;30.21;28.50;101215.72;5114668;28;20484;-10
2022/08/03 00:04:19;;;;;;;1.00;0.90;;;26.30;43.80;;;30.20;28.55;101214.00;5114758;28;20540;-10
2022/08/03 00:06:46;;;;;;;0.90;0.90;;;26.30;43.80;;;30.19;28.58;101212.28;5115274;28;20046;-10
2022/08/03 00:09:14;;;;;;;1.20;1.10;;;26.30;43.80;;;30.19;28.61;101217.69;5114610;28;20412;-10
2022/08/03 00:11:39;;;;;;;1.73;1.10;;;26.30;43.80;;;30.20;28.64;101216.69;5114247;28;20071;-9
2022/08/03 00:14:06;;;;;;;0.93;0.90;;;26.30;43.80;;;30.21;28.62;101221.09;5094462;28;20118;-9
2022/08/03 00:16:32;;;;;;;1.02;0.90;;;26.30;43.90;;;30.21;28.49;101215.72;5095953;28;20083;-10
2022/08/03 00:18:58;;;;;;;1.10;1.00;;;26.30;43.90;;;30.19;28.63;101207.75;5114175;28;20115;-10
2022/08/03 00:21:24;;;;;;;1.52;1.30;;;26.30;43.90;;;30.18;28.64;101211.44;5114227;28;20054;-9
2022/08/03 00:23:50;;;;;;;1.08;0.98;;;26.30;43.90;;;30.18;28.60;101210.59;5096166;28;20052;-10
2022/08/03 00:26:16;;;;;;;1.52;0.90;;;26.30;43.90;;;30.20;28.54;101214.00;5114325;28;20075;-10
2022/08/03 00:28:42;;;;;;;1.00;0.90;;;26.30;43.90;;;30.19;28.37;101210.47;5114304;28;20059;-10
2022/08/03 00:31:07;;;;;;;0.95;0.95;;;26.30;43.90;;;30.18;28.70;101203.34;5114247;28;20504;-10
2022/08/03 00:33:33;;;;;;;1.42;1.00;;;26.30;43.90;;;30.19;28.50;101205.06;5114238;28;20055;-10
2022/08/03 00:35:59;;;;;;;1.00;0.90;;;26.30;43.90;;;30.20;28.61;101208.59;5114122;28;20175;-10
2022/08/03 00:38:25;;;;;;;1.20;0.85;;;26.30;43.90;;;30.18;28.48;101203.34;5114472;28;20493;-10
2022/08/03 00:40:50;;;;;;;0.90;0.90;;;26.30;43.90;;;30.15;28.62;101195.56;5113914;28;20048;-10
2022/08/03 00:43:16;;;;;;;2.35;1.30;;;26.30;43.90;;;30.15;28.73;101200.09;5113979;28;20044;-10
2022/08/03 00:45:43;;;;;;;3.47;1.00;;;26.30;43.90;;;30.16;28.61;101199.97;5114007;28;20572;-10
2022/08/03 00:48:11;;;;;;;1.23;1.10;;;26.30;43.90;;;30.17;28.49;101198.97;5113924;28;20472;-10
2022/08/03 00:50:42;;;;;;;1.15;1.00;;;26.30;43.90;;;30.17;28.67;101211.59;5114260;28;20472;-10
2022/08/03 00:53:13;;;;;;;1.67;1.20;;;26.30;43.90;;;30.18;28.45;101202.50;5113935;28;20533;-10
2022/08/03 00:55:40;;;;;;;1.25;1.15;;;26.30;43.90;;;30.16;28.44;101194.56;5114154;28;20067;-10
2022/08/03 00:58:07;;;;;;;1.75;1.20;;;26.30;44.00;;;30.18;28.61;101210.59;5113857;28;20516;-10
2022/08/03 01:00:37;;;;;;;1.48;1.20;;;26.30;43.90;;;30.16;28.71;101201.81;5094613;28;20143;-10
2022/08/03 01:03:04;;;;;;;2.25;1.30;;;26.30;43.90;;;30.17;28.58;101200.81;5114093;28;20534;-10
2022/08/03 01:05:52;;;;;;;1.25;1.10;;;26.20;43.90;;;30.15;28.62;101209.03;5113803;28;20052;-10
2022/08/03 01:09:02;;;;;;;1.80;1.40;;;26.20;43.90;;;30.15;28.74;101197.41;5095335;28;20060;-9
2022/08/03 01:12:01;;;;;;;1.30;1.13;;;26.30;44.00;;;30.18;28.53;101207.91;5074162;28;20048;-10
2022/08/03 01:14:45;;;;;;;1.45;1.23;;;26.20;43.90;;;30.13;28.59;101200.25;5095095;28;20500;-10
2022/08/03 01:17:45;;;;;;;1.05;0.95;;;26.30;43.90;;;30.13;28.40;101197.56;5113542;28;20496;-10
2022/08/03 01:20:13;;;;;;;0.95;0.93;;;26.30;44.00;;;30.16;28.52;101202.66;5113471;28;20096;-10
2022/08/03 01:23:04;;;;;;;1.08;0.98;;;26.30;44.00;;;30.08;28.47;101187.22;5113519;28;20048;-10
2022/08/03 01:26:22;;;;;;;1.20;1.10;;;26.20;43.90;;;30.15;28.63;101198.25;5113577;28;20053;-9
2022/08/03 01:29:27;;;;;;;1.20;1.10;;;26.30;44.00;;;30.12;28.58;101195.84;5112998;28;20139;-10
2022/08/03 01:32:00;;;;;;;1.10;1.00;;;26.30;44.00;;;30.13;28.65;101194.88;5113672;28;20051;-10
2022/08/03 01:34:35;;;;;;;1.27;1.20;;;26.20;43.90;;;30.09;28.62;101190.78;5113286;28;20067;-9
2022/08/03 01:37:06;;;;;;;1.63;1.20;;;26.20;43.90;;;30.11;28.64;101191.47;5113245;28;20047;-10
2022/08/03 01:39:34;;;;;;;2.30;1.35;;;26.20;44.00;;;30.11;28.64;101186.06;5095007;28;20043;-9
2022/08/03 01:42:06;;;;;;;1.17;1.00;;;26.20;44.00;;;30.11;28.66;101181.53;5095014;28;20039;-9
2022/08/03 01:44:37;;;;;;;1.77;1.13;;;26.20;44.00;;;30.11;28.56;101189.63;5095655;28;20396;-9
2022/08/03 01:47:05;;;;;;;1.15;1.05;;;26.20;44.00;;;30.11;28.74;101192.31;5094672;28;20130;-10
2022/08/03 01:49:37;;;;;;;2.45;1.17;;;26.20;44.00;;;30.08;28.76;101187.22;5113134;28;20054;-9
2022/08/03 01:52:05;;;;;;;1.02;0.95;;;26.20;44.00;;;30.09;28.67;101180.00;5113089;28;20044;-9
2022/08/03 01:54:37;;;;;;;1.10;0.98;;;26.20;44.00;;;30.08;28.44;101187.22;5094229;28;20051;-10
2022/08/03 01:57:03;;;;;;;1.40;1.20;;;26.20;44.00;;;30.11;28.55;101188.78;5094404;28;20039;-10
2022/08/03 01:59:33;;;;;;;1.10;1.00;;;26.20;44.00;;;30.06;28.59;101183.81;5113042;28;20043;-10
2022/08/03 02:02:00;;;;;;;1.50;1.10;;;26.20;44.00;;;30.11;28.68;101188.78;5112850;28;20052;-10
2022/08/03 02:04:27;;;;;;;1.25;1.08;;;26.20;44.00;;;30.07;28.58;101179.25;5094963;28;20043;-10
2022/08/03 02:06:56;;;;;;;1.17;1.08;;;26.20;44.00;;;30.09;28.54;101177.28;5094597;28;20047;-10
2022/08/03 02:09:24;;;;;;;1.10;1.00;;;26.20;44.00;;;30.09;28.70;101174.59;5112845;28;20074;-10
2022/08/03 02:11:52;;;;;;;1.35;1.13;;;26.20;44.00;;;30.09;28.75;101178.13;5114388;28;20040;-9
2022/08/03 02:14:20;;;;;;;1.23;1.13;;;26.20;44.00;;;30.08;28.60;101176.41;5116408;28;20097;-10
2022/08/03 02:16:48;;;;;;;1.17;1.08;;;26.20;44.00;;;30.10;28.72;101173.56;5116150;28;20070;-10
2022/08/03 02:19:17;;;;;;;1.08;1.08;;;26.20;44.00;;;30.08;28.59;101175.56;5096656;28;20490;-10
2022/08/03 02:21:45;;;;;;;1.25;1.15;;;26.20;44.00;;;30.08;28.66;101170.19;5098103;28;20040;-10
2022/08/03 02:24:11;;;;;;;1.30;1.10;;;26.20;44.00;;;30.06;28.69;101166.78;5116346;28;20164;-10
2022/08/03 02:26:39;;;;;;;2.15;1.50;;;26.20;44.00;;;30.09;28.78;101177.28;5116018;28;20059;-10
2022/08/03 02:29:14;;;;;;;1.20;1.10;;;26.20;44.00;;;30.07;28.63;101173.88;5116162;28;20052;-10
2022/08/03 02:31:42;;;;;;;1.27;1.17;;;26.20;44.00;;;30.08;28.92;101179.13;5116522;28;20039;-9
2022/08/03 02:34:13;;;;;;;1.55;1.20;;;26.20;44.00;;;30.07;28.75;101172.03;5116075;28;20495;-10
2022/08/03 02:36:41;;;;;;;0.90;0.90;;;26.20;44.00;;;30.10;28.57;101174.44;5097213;28;20131;-10
2022/08/03 02:39:12;;;;;;;1.17;1.00;;;26.20;44.00;;;30.09;28.75;101171.91;5116073;28;20052;-10
2022/08/03 02:41:45;;;;;;;1.23;1.05;;;26.20;44.10;;;30.08;28.63;101160.25;5116236;28;20055;-10
2022/08/03 02:44:12;;;;;;;1.20;1.10;;;26.20;44.10;;;30.05;28.65;101155.13;5097814;28;20047;-9
2022/08/03 02:46:44;;;;;;;1.70;1.15;;;26.20;44.10;;;30.07;28.65;101155.88;5096041;28;20052;-10
2022/08/03 02:49:13;;;;;;;1.45;1.20;;;26.20;44.10;;;30.05;28.82;101157.84;5097623;28;20046;-10
2022/08/03 02:51:40;;;;;;;1.45;1.20;;;26.20;44.10;;;30.07;28.68;101163.97;5096832;28;20130;-10
2022/08/03 02:54:08;;;;;;;1.23;0.90;;;26.20;44.10;;;30.05;28.79;101155.13;5095386;28;20047;-10
2022/08/03 02:56:36;;;;;;;2.25;1.00;;;26.20;44.10;;;30.06;28.86;101162.25;5097842;28;20046;-10
2022/08/03 02:59:03;;;;;;;1.10;1.00;;;26.20;44.10;;;30.09;28.70;101166.50;5115226;28;20054;-10
2022/08/03 03:01:30;;;;;;;1.30;1.20;;;26.20;44.10;;;30.08;28.78;101165.63;5096450;28;20044;-10
2022/08/03 03:03:57;;;;;;;1.75;1.15;;;26.20;44.10;;;30.05;28.63;101165.09;5115571;28;20142;-10
2022/08/03 03:06:26;;;;;;;1.30;1.10;;;26.20;44.10;;;30.05;28.77;101163.22;5115550;28;20087;-9
2022/08/03 03:08:53;;;;;;;1.30;1.17;;;26.20;44.10;;;30.08;28.62;101164.78;5115491;28;20413;-9
2022/08/03 03:11:21;;;;;;;1.40;1.30;;;26.20;44.10;;;30.08;28.76;101164.78;5115509;28;20200;-10
2022/08/03 03:13:49;;;;;;;1.10;1.00;;;26.10;44.00;;;30.07;28.72;101161.25;5095597;28;20075;-10
2022/08/03 03:16:15;;;;;;;1.30;1.00;;;26.20;44.10;;;30.04;28.65;101160.72;5115269;28;20088;-10
2022/08/03 03:18:45;;;;;;;0.90;0.90;;;26.10;44.00;;;30.06;28.78;101161.41;5097566;28;20059;-10
2022/08/03 03:21:15;;;;;;;1.47;1.30;;;26.20;44.10;;;30.05;28.77;101159.69;5097169;28;20130;-10
2022/08/03 03:23:41;;;;;;;1.17;1.08;;;26.20;44.10;;;30.06;28.66;101156.00;5114779;28;20063;-9
2022/08/03 03:26:08;;;;;;;1.00;1.00;;;26.20;44.10;;;30.07;28.76;101158.56;5096974;28;20043;-10
2022/08/03 03:28:38;;;;;;;1.38;1.25;;;26.10;44.00;;;30.05;28.68;101157.84;5115558;28;20044;-10
2022/08/03 03:31:07;;;;;;;1.10;1.00;;;26.20;44.10;;;30.06;28.61;101158.72;5115657;28;20062;-9
2022/08/03 03:33:34;;;;;;;1.50;1.20;;;26.10;44.10;;;30.05;28.78;101160.53;5096888;28;20055;-9
2022/08/03 03:36:00;;;;;;;1.20;1.10;;;26.20;44.10;;;30.07;28.67;101161.25;5115003;28;20089;-10
2022/08/03 03:38:26;;;;;;;1.30;1.20;;;26.20;44.20;;;30.05;28.78;101165.09;5095688;28;20052;-10
2022/08/03 03:40:53;;;;;;;1.23;1.15;;;26.20;44.10;;;30.04;28.88;101158.84;5115411;28;20247;-10
2022/08/03 03:43:21;;;;;;;1.20;1.10;;;26.20;44.20;;;30.06;28.77;101162.25;5094695;28;20052;-9
2022/08/03 03:45:48;;;;;;;1.30;1.10;;;26.20;44.20;;;30.07;28.83;101163.09;5115054;28;20522;-10
2022/08/03 03:48:14;;;;;;;1.25;1.15;;;26.20;44.20;;;30.07;28.68;101160.38;5114814;28;20050;-10
2022/08/03 03:50:40;;;;;;;0.85;0.85;;;26.10;44.10;;;30.04;28.70;101161.56;5114924;28;20485;-10
2022/08/03 03:53:12;;;;;;;1.85;1.30;;;26.20;44.20;;;30.04;28.74;101161.56;5114863;28;20043;-10
2022/08/03 03:55:39;;;;;;;1.50;1.40;;;26.10;44.10;;;30.07;28.78;101171.16;5115136;28;20051;-10
2022/08/03 03:58:05;;;;;;;1.20;1.10;;;26.10;44.10;;;30.04;28.92;101158.84;5114693;28;20051;-10
2022/08/03 04:00:30;;;;;;;1.40;1.30;;;26.20;44.10;;;30.08;28.66;101167.50;5079569;28;20540;-10
2022/08/03 04:02:56;;;;;;;1.25;1.15;;;26.20;44.10;;;30.08;28.67;101172.88;5115087;28;20072;-10
2022/08/03 04:11:28;;;;;;;1.23;1.10;;;26.20;44.00;;;30.13;28.78;101169.75;5114678;28;20111;-9
2022/08/03 04:14:07;;;;;;;1.13;1.10;;;26.30;44.10;;;30.11;28.67;101159.94;5023090;28;20139;-10
2022/08/03 04:16:40;;;;;;;1.30;1.20;;;26.30;44.00;;;30.13;28.62;101158.97;5095134;28;20055;-10
2022/08/03 04:19:36;;;;;;;1.55;1.35;;;26.30;43.90;;;30.20;28.78;101165.44;5078888;28;20064;-9
2022/08/03 04:22:10;;;;;;;0.93;0.90;;;26.30;43.80;;;30.22;28.77;101163.44;5099780;28;20140;-10
2022/08/03 04:24:45;;;;;;;1.30;1.20;;;26.40;43.80;;;30.24;28.70;101162.31;5114685;28;20056;-9
2022/08/03 04:27:14;;;;;;;1.30;1.20;;;26.40;43.70;;;30.30;28.55;101171.66;5097094;28;20052;-10
2022/08/03 04:29:46;;;;;;;1.05;1.00;;;26.50;43.60;;;30.31;28.63;101157.16;5114182;28;20055;-11
2022/08/03 04:32:13;;;;;;;1.38;1.20;;;26.50;43.60;;;30.34;28.49;101164.09;5094010;28;20075;-10
2022/08/03 04:34:39;;;;;;;1.52;1.25;;;26.50;43.60;;;30.37;28.44;101159.31;5094815;28;20130;-10
2022/08/03 04:37:11;;;;;;;1.52;1.23;;;26.60;43.70;;;30.34;28.54;101162.28;5114246;28;20047;-10
2022/08/03 04:39:38;;;;;;;1.63;1.40;;;26.60;43.70;;;30.39;28.47;101153.72;5114481;28;20059;-9
2022/08/03 04:42:07;;;;;;;1.30;1.17;;;26.60;43.70;;;30.41;28.41;101157.16;5094476;28;20047;-10
2022/08/03 04:44:43;;;;;;;1.63;1.23;;;26.60;43.60;;;30.41;28.42;101155.28;5095871;28;20130;-10
2022/08/03 04:47:08;;;;;;;1.50;1.40;;;26.60;43.60;;;30.47;28.50;101162.78;5096137;28;20047;-9
2022/08/03 04:49:36;;;;;;;1.65;1.30;;;26.70;43.60;;;30.45;28.43;101153.13;5114308;28;20491;-10
2022/08/03 04:52:04;;;;;;;1.33;1.23;;;26.70;43.60;;;30.46;28.41;101158.38;5093985;28;20452;-9
2022/08/03 04:54:30;;;;;;;1.73;1.35;;;26.70;43.50;;;30.53;28.44;101164.03;5095600;28;20047;-10
2022/08/03 04:56:55;;;;;;;1.85;1.40;;;26.80;43.50;;;30.57;28.38;101176.22;5095624;28;20109;-10
2022/08/03 04:59:21;;;;;;;1.25;1.13;;;26.80;43.50;;;30.59;28.26;101170.66;5114088;28;20126;-9
2022/08/03 05:01:48;;;;;;;2.15;1.30;;;26.90;43.50;;;30.61;28.37;101172.22;5113681;28;20164;-10
2022/08/03 05:04:15;;;;;;;1.42;1.25;;;26.90;43.40;;;30.63;28.36;101170.22;5113745;28;20057;-10
2022/08/03 05:06:41;;;;;;;1.45;1.30;;;26.90;43.40;;;30.64;28.28;101171.09;5113668;28;20055;-9
2022/08/03 05:09:07;;;;;;;1.85;1.42;;;26.90;43.30;;;30.68;28.40;101167.06;5113777;28;20046;-10
2022/08/03 05:11:33;;;;;;;2.53;1.48;;;27.00;43.30;;;30.74;28.18;101179.09;5113401;28;20119;-10
2022/08/03 05:13:58;;;;;;;1.63;1.42;;;27.00;43.30;;;30.76;28.21;101174.41;5114014;28;20080;-10
2022/08/03 05:16:24;;;;;;;1.10;1.10;;;27.00;43.20;;;30.79;28.26;101174.06;5113499;28;20047;-10
2022/08/03 05:18:50;;;;;;;1.60;1.50;;;27.10;43.20;;;30.81;28.17;101174.81;5113229;28;20051;-9
2022/08/03 05:21:16;;;;;;;1.40;1.30;;;27.10;43.10;;;30.87;28.31;101176.88;5094832;28;20089;-9
2022/08/03 05:23:43;;;;;;;1.30;1.20;;;27.20;43.10;;;30.88;28.10;101169.63;5113397;28;20052;-9
2022/08/03 05:26:10;;;;;;;1.42;1.33;;;27.20;43.00;;;30.92;27.82;101173.72;5113717;28;20067;-10
2022/08/03 05:28:37;;;;;;;1.30;1.20;;;27.20;42.90;;;30.97;28.05;101168.72;5113193;28;20155;-10
2022/08/03 05:31:03;;;;;;;1.30;1.20;;;27.30;42.90;;;30.99;28.10;101174.81;5113351;28;20374;-10
2022/08/03 05:33:29;;;;;;;1.30;1.20;;;27.30;42.90;;;31.06;28.10;101181.31;5113658;28;20047;-9
2022/08/03 05:35:54;;;;;;;1.15;1.05;;;27.40;42.90;;;31.09;28.11;101180.16;5113736;28;20491;-10
2022/08/03 05:38:20;;;;;;;1.77;1.10;;;27.40;42.80;;;31.13;27.73;101177.00;5113353;28;20126;-10
2022/08/03 05:40:46;;;;;;;1.40;1.20;;;27.40;42.70;;;31.16;27.86;101173.97;5113273;28;20083;-9
2022/08/03 05:43:12;;;;;;;1.48;1.27;;;27.40;42.70;;;31.20;27.64;101169.13;5113253;28;20071;-9
2022/08/03 05:45:37;;;;;;;1.77;1.23;;;27.50;42.70;;;31.25;27.70;101174.06;5094657;28;20382;-9
2022/08/03 05:48:05;;;;;;;1.45;1.35;;;27.50;42.60;;;31.24;27.80;101173.22;5094245;28;20147;-10
2022/08/03 05:50:30;;;;;;;1.35;1.25;;;27.60;42.60;;;31.31;27.76;101176.16;5113062;28;20489;-9
2022/08/03 05:52:56;;;;;;;1.33;1.15;;;27.60;42.60;;;31.34;27.72;101178.50;5113093;28;20053;-10
2022/08/03 05:55:22;;;;;;;1.25;1.15;;;27.60;42.50;;;31.35;27.71;101172.94;5112930;28;20130;-10
2022/08/03 05:57:48;;;;;;;1.30;1.20;;;27.60;42.40;;;31.38;27.78;101178.03;5113021;28;20043;-10
2022/08/03 06:00:15;;;;;;;1.55;1.13;;;27.70;42.50;;;31.44;27.63;101175.72;5113028;28;20047;-10
2022/08/03 06:02:41;;;;;;;1.30;1.20;;;27.70;42.40;;;31.48;27.44;101177.13;5112883;28;20450;-10
2022/08/03 06:05:08;;;;;;;1.13;1.02;;;27.80;42.40;;;31.50;27.52;101172.41;5112911;28;20044;-10
2022/08/03 06:07:34;;;;;;;1.60;1.20;;;27.80;42.30;;;31.54;27.40;101177.38;5112869;28;20389;-10
2022/08/03 06:10:02;;;;;;;1.40;1.25;;;27.80;42.30;;;31.57;27.65;101170.78;5113197;28;20055;-10
2022/08/03 06:12:29;;;;;;;1.35;1.23;;;27.90;42.20;;;31.57;27.10;101168.94;5113094;28;20488;-10
2022/08/03 06:14:55;;;;;;;1.77;1.33;;;27.90;42.20;;;31.62;27.04;101167.59;5112713;28;20047;-10
2022/08/03 06:17:21;;;;;;;1.15;1.13;;;28.00;42.20;;;31.67;27.13;101174.22;5094484;28;20043;-10
2022/08/03 06:19:47;;;;;;;1.90;1.20;;;28.00;42.20;;;31.72;27.20;101180.00;5092997;28;20409;-10
2022/08/03 06:22:13;;;;;;;1.00;1.00;;;28.00;42.10;;;31.71;27.24;101166.63;5094315;28;20050;-10
2022/08/03 06:24:38;;;;;;;1.20;1.10;;;28.10;42.10;;;31.77;27.11;101169.56;5112692;28;20398;-10
2022/08/03 06:27:04;;;;;;;1.23;1.10;;;28.10;42.00;;;31.80;26.91;101168.41;5094225;28;20040;-10
2022/08/03 06:29:30;;;;;;;1.30;1.15;;;28.10;42.00;;;31.83;27.18;101165.38;5112947;28;20105;-10
2022/08/03 06:31:56;;;;;;;1.45;1.20;;;28.10;41.90;;;31.88;26.94;101173.03;5112546;28;20058;-10
2022/08/03 06:34:22;;;;;;;1.30;1.20;;;28.20;41.90;;;31.92;26.87;101175.22;5112466;28;20093;-10
2022/08/03 06:36:49;;;;;;;1.35;1.25;;;28.20;41.80;;;31.94;26.84;101170.53;5112889;28;20044;-10
2022/08/03 06:39:17;;;;;;;2.15;1.10;;;28.20;41.70;;;31.98;27.16;101178.28;5112449;28;20052;-10
2022/08/03 06:41:43;;;;;;;1.27;1.17;;;28.30;41.70;;;32.04;27.02;101180.34;5112714;28;20039;-10
2022/08/03 06:44:08;;;;;;;1.20;1.10;;;28.30;41.70;;;32.06;26.83;101181.03;5112312;28;20059;-10
2022/08/03 06:46:34;;;;;;;1.40;1.30;;;28.30;41.60;;;32.08;26.69;101174.50;5112245;28;20177;-9
2022/08/03 06:49:00;;;;;;;1.58;1.23;;;28.40;41.70;;;32.07;26.90;101170.09;5112256;28;20044;-10
2022/08/03 06:51:26;;;;;;;1.30;1.20;;;28.40;41.60;;;32.13;26.68;101174.03;5112114;28;20047;-10
2022/08/03 06:53:52;;;;;;;1.33;1.23;;;28.40;41.60;;;32.19;26.53;101178.78;5112167;28;20051;-10
2022/08/03 06:56:19;;;;;;;1.27;1.10;;;28.40;41.60;;;32.20;26.70;101175.06;5076793;28;20458;-10
2022/08/03 06:58:46;;;;;;;1.30;1.20;;;28.50;41.60;;;32.24;26.80;101181.84;5114508;28;20454;-10
2022/08/03 07:01:12;;;;;;;1.27;1.02;;;28.50;41.60;;;32.29;26.79;101186.75;5097641;28;20039;-11
2022/08/03 07:03:39;;;;;;;1.20;1.10;;;28.50;41.50;;;32.31;26.52;101177.50;5115697;28;20049;-10
2022/08/03 07:06:05;;;;;;;1.25;1.15;;;28.60;41.40;;;32.33;26.79;101185.44;5115740;28;20043;-10
2022/08/03 07:08:31;;;;;;;1.25;1.05;;;28.60;41.40;;;32.37;26.67;101186.81;5115549;28;20058;-10
2022/08/03 07:10:57;;;;;;;1.00;1.00;;;28.60;41.20;;;32.43;26.39;101188.88;5115612;28;20118;-10
2022/08/03 07:13:22;;;;;;;1.10;1.00;;;28.70;41.30;;;32.46;26.29;101193.94;5097086;28;20092;-10
2022/08/03 07:15:48;;;;;;;1.23;1.13;;;28.70;41.30;;;32.42;26.26;101189.88;5115356;28;20050;-10
2022/08/03 07:18:14;;;;;;;1.20;1.10;;;28.70;41.10;;;32.49;26.49;101193.63;5115514;28;20047;-10
2022/08/03 07:20:41;;;;;;;1.65;1.10;;;28.80;41.20;;;32.53;26.16;101195.97;5115672;28;20397;-10
2022/08/03 07:23:06;;;;;;;1.75;1.30;;;28.80;41.20;;;32.56;26.28;101198.38;5115613;28;20047;-10
2022/08/03 07:25:32;;;;;;;1.27;1.17;;;28.80;41.20;;;32.58;26.18;101199.91;5115168;28;20050;-10
2022/08/03 07:27:58;;;;;;;1.00;1.00;;;28.80;41.20;;;32.60;26.26;101192.47;5115378;28;20443;-10
2022/08/03 07:30:24;;;;;;;1.10;1.00;;;28.80;41.20;;;32.59;26.37;101188.06;5097019;28;20047;-10
2022/08/03 07:32:50;;;;;;;1.38;1.20;;;28.80;41.20;;;32.60;26.32;101195.19;5115475;28;20101;-10
2022/08/03 07:35:15;;;;;;;1.20;1.10;;;28.80;41.20;;;32.63;26.28;101202.16;5115224;28;20047;-10
2022/08/03 07:37:41;;;;;;;1.10;1.00;;;28.80;41.30;;;32.62;26.01;101205.88;5114756;28;20044;-10
2022/08/03 07:40:07;;;;;;;1.40;1.17;;;28.70;41.30;;;32.59;26.53;101193.47;5114754;28;20056;-10
2022/08/03 07:42:33;;;;;;;1.13;1.10;;;28.70;41.30;;;32.61;26.44;101199.63;5115012;28;20081;-10
2022/08/03 07:44:59;;;;;;;2.28;1.20;;;28.70;41.40;;;32.65;26.43;101197.44;5115059;28;20066;-11
2022/08/03 07:47:30;;;;;;;1.50;1.20;;;28.80;41.40;;;32.62;26.56;101198.59;5114922;28;20481;-10
2022/08/03 07:49:56;;;;;;;3.03;1.00;;;28.70;41.70;;;32.63;26.37;101196.75;5096408;28;20048;-9
2022/08/03 07:55:08;;;;;;;1.55;1.17;;;28.70;41.70;;;32.63;26.78;101185.91;5115307;28;20078;-10
2022/08/03 07:57:35;;;;;;;1.30;1.10;;;28.70;41.80;;;32.61;26.95;101190.59;5114895;28;20075;-10
2022/08/03 08:00:03;;;;;;;1.95;1.35;;;28.60;41.90;;;32.61;26.54;101191.50;5114825;28;20046;-9
2022/08/03 08:02:38;;;;;;;1.50;1.40;;;28.60;42.10;;;32.60;26.79;101188.91;5114753;28;20051;-10
2022/08/03 08:05:04;;;;;;;2.00;1.23;;;28.60;42.10;;;32.61;26.58;101185.19;5114694;28;20046;-10
2022/08/03 08:07:30;;;;;;;1.55;1.35;;;28.70;42.00;;;32.62;26.49;101190.47;5114396;28;20050;-10
2022/08/03 08:09:56;;;;;;;1.50;1.40;;;28.70;41.90;;;32.62;26.93;101192.34;5114789;28;20405;-10
2022/08/03 08:12:21;;;;;;;1.50;1.40;;;28.70;41.90;;;32.63;26.30;101192.19;5114490;28;20481;-10
2022/08/03 08:14:47;;;;;;;3.13;1.45;;;28.80;41.90;;;32.65;26.61;101184.72;5114364;28;20047;-10
2022/08/03 08:17:14;;;;;;;1.95;1.70;;;28.80;42.20;;;32.68;26.57;101188.97;5114536;28;20052;-10
2022/08/03 08:19:40;;;;;;;1.40;1.30;;;28.80;42.20;;;32.67;26.57;101181.84;5096403;28;20485;-10
2022/08/03 08:22:05;;;;;;;1.45;1.35;;;28.80;42.20;;;32.64;26.42;101182.19;5114386;28;20485;-10
2022/08/03 08:24:32;;;;;;;2.47;1.65;;;28.70;42.20;;;32.63;26.62;101181.34;5114299;28;20046;-10
2022/08/03 08:27:00;;;;;;;2.38;1.40;;;28.70;42.30;;;32.57;26.65;101187.38;5114357;28;20055;-10
2022/08/03 08:29:26;;;;;;;1.50;1.35;;;28.60;42.30;;;32.56;27.00;101184.84;5114143;28;20481;-10
2022/08/03 08:31:52;;;;;;;1.60;1.50;;;28.60;42.40;;;32.56;26.59;101188.41;5095909;28;20130;-10
2022/08/03 08:34:19;;;;;;;2.03;1.65;;;28.50;42.40;;;32.52;27.18;101181.59;5114109;28;20047;-10
2022/08/03 08:36:45;;;;;;;1.45;1.35;;;28.50;42.40;;;32.52;27.13;101187.03;5114041;28;20047;-10
2022/08/03 08:39:11;;;;;;;1.65;1.50;;;28.50;42.50;;;32.48;27.12;101182.97;5114418;28;20050;-10
2022/08/03 08:41:37;;;;;;;2.38;1.70;;;28.50;42.50;;;32.48;26.72;101178.38;5114086;28;20373;-10
2022/08/03 08:44:03;;;;;;;1.50;1.30;;;28.50;43.10;;;32.47;26.91;101186.66;5114042;28;20046;-10
2022/08/03 08:46:32;;;;;;;1.40;1.30;;;28.40;42.60;;;32.43;27.01;101188.03;5114209;28;20403;-10
2022/08/03 08:48:59;;;;;;;2.40;1.63;;;28.50;42.70;;;32.41;27.27;101192.72;5114096;28;20055;-9
2022/08/03 08:51:30;;;;;;;3.88;1.70;;;28.40;42.90;;;32.39;27.59;101184.78;5096220;28;20069;-10
2022/08/03 08:54:01;;;;;;;3.33;1.60;;;28.40;43.00;;;32.40;27.51;101191.06;5113882;28;20464;-10
2022/08/03 08:56:28;;;;;;;4.75;1.95;;;28.40;43.10;;;32.36;27.48;101195.94;5113800;28;20126;-10
2022/08/03 08:58:58;;;;;;;3.10;1.83;;;28.40;43.20;;;32.35;27.36;101199.66;5113602;28;20048;-10
2022/08/03 09:01:24;;;;;;;5.82;1.92;;;28.30;43.30;;;32.32;27.46;101191.84;5093986;28;20532;-10
2022/08/03 09:03:52;;;;;;;2.45;1.88;;;28.30;43.70;;;32.32;28.00;101195.41;5095421;28;20055;-10
2022/08/03 09:06:18;;;;;;;1.95;1.50;;;28.30;43.90;;;32.29;27.76;101193.03;5113701;28;20043;-10
2022/08/03 09:08:43;;;;;;;3.17;1.85;;;28.20;43.80;;;32.24;27.80;101189.13;5113222;28;20048;-10
2022/08/03 09:11:09;;;;;;;3.33;1.80;;;28.20;43.80;;;32.22;27.62;101191.97;5113836;28;20060;-10
2022/08/03 09:13:35;;;;;;;2.97;1.95;;;28.20;43.80;;;32.19;27.82;101181.47;5113584;28;20524;-14
2022/08/03 09:16:20;;;;;;;2.40;1.83;;;28.20;43.80;;;32.17;27.88;101190.78;5113925;28;20402;-10
2022/08/03 09:18:52;;;;;;;2.90;1.83;;;28.20;43.90;;;32.15;28.00;101184.69;5113469;28;20378;-10
2022/08/03 09:21:25;;;;;;;3.05;1.60;;;28.10;43.80;;;32.11;27.68;101184.13;5113217;28;20047;-10
2022/08/03 09:23:56;;;;;;;3.88;1.88;;;28.10;43.90;;;32.09;27.97;101183.47;5113669;28;20500;-10
2022/08/03 09:26:25;;;;;;;2.92;1.60;;;28.10;44.40;;;32.11;28.04;101194.97;5095435;28;20138;-10
2022/08/03 09:29:03;;;;;;;2.03;1.75;;;28.10;43.90;;;32.05;28.06;101191.03;5077440;28;20039;-10
2022/08/03 09:31:36;;;;;;;4.00;1.63;;;28.10;44.00;;;32.04;27.81;101186.59;5113035;28;20048;-10
2022/08/03 09:34:09;;;;;;;2.88;1.75;;;28.10;44.10;;;32.03;28.07;101195.75;5093589;28;20048;-10
2022/08/03 09:36:49;;;;;;;3.67;1.75;;;28.00;44.20;;;31.98;28.12;101186.41;5113077;28;20055;-10
2022/08/03 09:39:21;;;;;;;2.20;1.63;;;28.00;44.20;;;31.99;28.41;101185.41;5113213;28;20047;-10
2022/08/03 09:42:05;;;;;;;3.38;2.00;;;28.00;44.10;;;31.93;28.01;101181.50;5113185;28;20064;-9
2022/08/03 09:44:41;;;;;;;4.93;2.28;;;28.00;44.10;;;31.97;28.24;101182.84;5095295;28;20056;-10
2022/08/03 09:47:09;;;;;;;2.50;1.70;;;28.00;44.20;;;31.99;28.01;101196.22;5112907;28;20058;-9
2022/08/03 09:49:36;;;;;;;3.45;1.58;;;28.00;44.30;;;31.97;28.24;101190.97;5113472;28;20083;-10
2022/08/03 09:52:17;;;;;;;4.28;2.10;;;28.00;44.30;;;31.94;28.26;101180.47;5112908;28;20047;-10
2022/08/03 09:54:50;;;;;;;2.80;1.98;;;28.00;44.30;;;31.95;28.28;101174.91;5112839;28;20040;-10
2022/08/03 09:57:23;;;;;;;2.53;1.80;;;28.00;44.50;;;31.94;28.44;101181.34;5112522;28;20043;-10
2022/08/03 09:59:52;;;;;;;2.15;1.60;;;28.00;44.50;;;31.94;28.55;101186.75;5112610;28;20044;-10
2022/08/03 10:02:26;;;;;;;2.63;1.80;;;28.00;44.60;;;31.90;28.31;101171.00;5112747;28;20392;-10
2022/08/03 10:04:53;;;;;;;2.30;1.70;;;28.00;44.60;;;31.92;28.28;101180.63;5113162;28;20060;-9
2022/08/03 10:07:23;;;;;;;2.25;1.88;;;28.00;44.60;;;31.88;28.65;101173.84;5111522;28;20063;-11
2022/08/03 10:09:53;;;;;;;1.90;1.70;;;27.90;44.50;;;31.92;28.69;101177.94;5094151;28;20393;-10
2022/08/03 10:12:20;;;;;;;3.45;2.00;;;28.00;44.70;;;31.92;28.33;101187.91;5113312;28;20372;-9
2022/08/03 10:14:46;;;;;;;1.92;1.80;;;28.00;44.70;;;31.89;28.59;101177.41;5094679;28;20048;-10
2022/08/03 10:17:13;;;;;;;3.28;1.83;;;27.90;44.60;;;31.88;28.62;101178.44;5112348;28;20043;-10
2022/08/03 10:19:40;;;;;;;1.85;1.65;;;27.90;44.70;;;31.85;28.59;101173.34;5112702;28;20427;-10
2022/08/03 10:22:22;;;;;;;4.40;1.50;;;27.90;44.70;;;31.79;28.49;101171.25;5111310;28;20443;-11
2022/08/03 10:25:03;;;;;;;2.20;1.80;;;27.90;44.70;;;31.83;28.56;101181.59;5110303;28;20052;-11
2022/08/03 10:27:51;;;;;;;1.90;1.40;;;27.90;44.70;;;31.82;28.58;101170.94;5110981;28;20058;-12
2022/08/03 10:30:17;;;;;;;2.50;2.10;;;27.90;44.70;;;31.82;28.64;101170.94;5093147;28;20397;-10